Time;durP1;ratioP1;P1;durP2;ratioP2;P2;SDS_P1;SDS_P2;PMS_P1;PMS_P2;Temp;Humidity;BMP_temperature;BMP_pressure;BME280_temperature;BME280_humidity;BME280_pressure;Samples;Min_cycle;Max_cycle;Signal;HPM_P1;HPM_P2
2023/01/05 07:21:14;;;;;;;5.10;3.90;;;;;;;;;;5781980;23;20142;-92
2023/01/05 07:23:39;;;;;;;4.80;3.92;;;;;;;;;;4937444;29;20126;-92
2023/01/05 07:26:07;;;;;;;5.00;4.47;;;;;;;;;;4944014;28;20474;-95
2023/01/05 07:28:34;;;;;;;6.22;4.93;;;;;;;;;;4938562;29;20032;-93
2023/01/05 07:30:59;;;;;;;8.00;5.00;;;;;;;;;;4940277;29;20043;-91
2023/01/05 07:33:25;;;;;;;6.63;5.10;;;;;;;;;;4939616;29;20040;-86
2023/01/05 07:35:50;;;;;;;6.57;5.20;;;;;;;;;;4939602;29;20027;-92
2023/01/05 07:38:16;;;;;;;6.45;5.68;;;;;;;;;;4936693;29;20035;-90
2023/01/05 07:40:41;;;;;;;6.35;5.38;;;;;;;;;;4936468;29;20098;-89
2023/01/05 07:43:07;;;;;;;7.30;6.43;;;;;;;;;;4936174;29;20032;-91
2023/01/05 07:45:32;;;;;;;9.45;5.70;;;;;;;;;;4936839;29;20050;-89
2023/01/05 07:47:58;;;;;;;8.73;6.78;;;;;;;;;;4936929;29;20059;-91
2023/01/05 07:50:24;;;;;;;8.13;6.28;;;;;;;;;;4935902;29;20019;-93
2023/01/05 07:52:50;;;;;;;9.00;7.25;;;;;;;;;;4936812;29;20512;-94
2023/01/05 07:55:15;;;;;;;10.68;7.30;;;;;;;;;;4936705;29;20027;-89
2023/01/05 07:57:41;;;;;;;9.77;7.28;;;;;;;;;;4936705;29;20036;-93
2023/01/05 08:00:07;;;;;;;9.88;7.68;;;;;;;;;;4936622;29;20474;-92
2023/01/05 08:02:32;;;;;;;8.38;7.15;;;;;;;;;;4937645;29;20047;-94
2023/01/05 08:04:58;;;;;;;8.30;6.40;;;;;;;;;;4936748;29;20059;-93
2023/01/05 08:07:23;;;;;;;7.45;5.70;;;;;;;;;;4937567;29;20159;-91
2023/01/05 08:13:58;;;;;;;8.82;5.93;;;;;;;;;;4937910;29;20034;-90
2023/01/05 08:15:18;;;;;;;7.65;6.38;;;;;;;;;;4937307;29;20039;-94
2023/01/05 08:17:43;;;;;;;7.28;6.00;;;;;;;;;;4937299;29;20035;-94
2023/01/05 08:20:09;;;;;;;8.95;6.65;;;;;;;;;;4937438;29;20023;-90
2023/01/05 08:22:35;;;;;;;8.75;7.50;;;;;;;;;;4935626;29;20134;-89
2023/01/05 08:25:01;;;;;;;7.68;6.88;;;;;;;;;;4935918;29;20023;-89
2023/01/05 08:27:26;;;;;;;9.13;7.03;;;;;;;;;;4937116;29;20032;-89
2023/01/05 08:29:52;;;;;;;7.32;6.53;;;;;;;;;;4936384;29;20023;-94
2023/01/05 08:32:17;;;;;;;8.73;6.85;;;;;;;;;;4938125;29;20493;-89
2023/01/05 08:34:43;;;;;;;8.15;6.80;;;;;;;;;;4938800;29;20387;-89
2023/01/05 08:37:08;;;;;;;8.48;6.75;;;;;;;;;;4936920;29;20124;-89
2023/01/05 08:39:34;;;;;;;10.50;8.52;;;;;;;;;;4936338;29;20035;-89
2023/01/05 08:42:00;;;;;;;10.10;7.15;;;;;;;;;;4937405;29;20086;-94
2023/01/05 08:44:25;;;;;;;10.75;8.27;;;;;;;;;;4935773;29;20479;-89
2023/01/05 08:46:51;;;;;;;10.07;8.43;;;;;;;;;;4937382;29;20032;-94
2023/01/05 08:49:16;;;;;;;9.98;8.07;;;;;;;;;;4937094;29;20110;-90
2023/01/05 08:51:42;;;;;;;10.65;8.07;;;;;;;;;;4935533;29;20502;-89
2023/01/05 08:54:08;;;;;;;10.60;7.18;;;;;;;;;;4936326;29;20031;-89
2023/01/05 08:56:33;;;;;;;10.70;6.90;;;;;;;;;;4935418;29;20036;-89
2023/01/05 08:58:59;;;;;;;9.07;6.78;;;;;;;;;;4937078;29;20051;-93
2023/01/05 09:01:25;;;;;;;7.85;6.15;;;;;;;;;;4935592;29;20482;-89
2023/01/05 09:03:51;;;;;;;6.75;5.63;;;;;;;;;;4936500;29;20051;-95
2023/01/05 09:06:17;;;;;;;7.35;6.15;;;;;;;;;;4935407;29;20102;-93
2023/01/05 09:08:43;;;;;;;7.18;6.13;;;;;;;;;;4935386;29;20042;-91
2023/01/05 09:11:13;;;;;;;7.90;6.28;;;;;;;;;;4936674;29;20093;-93
2023/01/05 09:13:44;;;;;;;7.88;6.30;;;;;;;;;;4935599;29;20043;-89
2023/01/05 09:16:12;;;;;;;9.20;6.72;;;;;;;;;;4935433;29;20028;-89
2023/01/05 09:18:39;;;;;;;9.40;7.35;;;;;;;;;;4936805;29;20032;-90
2023/01/05 09:21:05;;;;;;;7.38;6.38;;;;;;;;;;4935433;29;20039;-92
2023/01/05 09:23:31;;;;;;;7.22;6.20;;;;;;;;;;4936824;29;20030;-89
2023/01/05 09:25:56;;;;;;;10.10;7.05;;;;;;;;;;4936452;29;20032;-93
2023/01/05 09:28:22;;;;;;;8.52;6.68;;;;;;;;;;4935596;29;20087;-91
2023/01/05 09:30:47;;;;;;;8.25;7.10;;;;;;;;;;4935102;29;20481;-89
2023/01/05 09:33:13;;;;;;;10.55;7.50;;;;;;;;;;4935046;29;20031;-89
2023/01/05 09:35:38;;;;;;;8.65;6.70;;;;;;;;;;4935146;29;20032;-93
2023/01/05 09:38:04;;;;;;;8.57;7.47;;;;;;;;;;4936321;29;20034;-89
2023/01/05 09:40:39;;;;;;;9.45;7.53;;;;;;;;;;4935175;29;20032;-92
2023/01/05 09:43:05;;;;;;;8.95;7.30;;;;;;;;;;4935062;29;20253;-90
2023/01/05 09:45:31;;;;;;;9.15;6.72;;;;;;;;;;4935203;29;20471;-93
2023/01/05 09:47:59;;;;;;;8.15;6.43;;;;;;;;;;4934979;29;20031;-93
2023/01/05 09:50:29;;;;;;;7.10;6.20;;;;;;;;;;4935151;29;20049;-90
2023/01/05 09:52:58;;;;;;;7.57;6.65;;;;;;;;;;4936230;29;20034;-90
2023/01/05 09:55:26;;;;;;;7.85;5.93;;;;;;;;;;4936134;29;20087;-89
2023/01/05 09:57:57;;;;;;;8.23;6.38;;;;;;;;;;4934931;29;20443;-93
2023/01/05 10:00:24;;;;;;;7.53;6.47;;;;;;;;;;4935116;29;20028;-91
2023/01/05 10:02:57;;;;;;;7.93;5.93;;;;;;;;;;4934791;29;20062;-89
2023/01/05 10:05:26;;;;;;;6.60;5.90;;;;;;;;;;4934841;29;20035;-93
2023/01/05 10:07:54;;;;;;;5.88;5.20;;;;;;;;;;4934917;29;20468;-93
2023/01/05 10:10:34;;;;;;;7.13;6.43;;;;;;;;;;4937622;29;20102;-92
2023/01/05 10:13:02;;;;;;;6.13;5.50;;;;;;;;;;4936336;29;20383;-89
2023/01/05 10:15:48;;;;;;;7.45;6.00;;;;;;;;;;4938370;29;20028;-89
2023/01/05 10:18:21;;;;;;;6.93;6.00;;;;;;;;;;4939637;29;20032;-93
2023/01/05 10:21:17;;;;;;;6.30;5.70;;;;;;;;;;4938373;29;20391;-90
2023/01/05 10:23:58;;;;;;;6.97;5.90;;;;;;;;;;4938913;29;20390;-89
2023/01/05 10:26:23;;;;;;;9.50;6.50;;;;;;;;;;4940462;29;20032;-94
2023/01/05 10:29:05;;;;;;;6.55;5.75;;;;;;;;;;4938667;29;20024;-90
2023/01/05 10:31:48;;;;;;;7.55;6.68;;;;;;;;;;4938663;29;20467;-95
2023/01/05 10:34:34;;;;;;;7.75;6.65;;;;;;;;;;4939562;29;20036;-94
2023/01/05 10:37:25;;;;;;;7.18;6.45;;;;;;;;;;4937926;29;20118;-93
2023/01/05 10:40:12;;;;;;;6.50;5.78;;;;;;;;;;4939373;29;20071;-90
2023/01/05 10:43:14;;;;;;;6.00;5.40;;;;;;;;;;4937745;29;20127;-89
2023/01/05 10:45:40;;;;;;;7.85;5.95;;;;;;;;;;4937745;29;20031;-89
2023/01/05 10:48:14;;;;;;;6.60;5.80;;;;;;;;;;4938746;29;20023;-90
2023/01/05 10:50:41;;;;;;;6.68;5.97;;;;;;;;;;4937770;29;20019;-94
2023/01/05 10:53:08;;;;;;;6.25;5.20;;;;;;;;;;4937702;29;20027;-92
2023/01/05 10:55:54;;;;;;;6.55;5.63;;;;;;;;;;4937764;29;20079;-89
2023/01/05 10:58:32;;;;;;;7.38;5.10;;;;;;;;;;4938756;29;20032;-90
2023/01/05 11:01:12;;;;;;;6.78;4.82;;;;;;;;;;4938940;29;20495;-95
2023/01/05 11:03:44;;;;;;;7.30;5.35;;;;;;;;;;4937474;29;20043;-89
2023/01/05 11:06:19;;;;;;;5.10;4.60;;;;;;;;;;4937450;29;20352;-89
2023/01/05 11:08:45;;;;;;;6.20;5.15;;;;;;;;;;4938889;29;20028;-93
2023/01/05 11:11:28;;;;;;;6.13;4.88;;;;;;;;;;4938773;29;20076;-93
2023/01/05 11:13:57;;;;;;;5.53;4.53;;;;;;;;;;4938547;29;20406;-93
2023/01/05 11:16:26;;;;;;;5.90;5.32;;;;;;;;;;4937576;29;20083;-93
2023/01/05 11:18:57;;;;;;;6.18;4.70;;;;;;;;;;4938757;29;20067;-93
2023/01/05 11:21:42;;;;;;;5.80;4.50;;;;;;;;;;4937083;29;20047;-90
2023/01/05 11:24:27;;;;;;;5.00;4.50;;;;;;;;;;4938299;29;20047;-89
2023/01/05 11:26:58;;;;;;;5.82;4.70;;;;;;;;;;4937266;29;20032;-90
2023/01/05 11:29:24;;;;;;;5.28;4.68;;;;;;;;;;4937121;29;20055;-93
2023/01/05 11:31:56;;;;;;;5.90;4.60;;;;;;;;;;4937221;29;20091;-93
2023/01/05 11:34:46;;;;;;;6.35;4.70;;;;;;;;;;4938136;29;20024;-90
2023/01/05 11:37:26;;;;;;;5.90;4.55;;;;;;;;;;4936634;29;20034;-94
2023/01/05 11:39:55;;;;;;;;;;;;;;;;;;4938615;29;20102;-92
2023/01/05 11:42:23;;;;;;;6.72;4.72;;;;;;;;;;4936722;29;20375;-90
2023/01/05 11:45:19;;;;;;;5.95;4.50;;;;;;;;;;4936597;29;20031;-90
2023/01/05 11:47:57;;;;;;;5.05;4.47;;;;;;;;;;4937839;29;20368;-91
2023/01/05 11:50:26;;;;;;;5.63;4.85;;;;;;;;;;4938726;29;20023;-93
2023/01/05 11:53:01;;;;;;;5.65;4.60;;;;;;;;;;4938254;29;20063;-90
2023/01/05 11:55:36;;;;;;;6.72;5.13;;;;;;;;;;4938595;29;20027;-91
2023/01/05 11:58:21;;;;;;;4.88;4.38;;;;;;;;;;4936520;29;20039;-89
2023/01/05 12:01:15;;;;;;;4.63;4.10;;;;;;;;;;4936649;29;20474;-90
2023/01/05 12:04:03;;;;;;;5.40;4.65;;;;;;;;;;4936633;29;20131;-93
2023/01/05 12:07:00;;;;;;;5.25;4.75;;;;;;;;;;4937589;29;20129;-89
2023/01/05 12:09:32;;;;;;;5.55;5.05;;;;;;;;;;4937966;29;20028;-90
2023/01/05 12:12:25;;;;;;;6.07;5.38;;;;;;;;;;4937934;29;20024;-91
2023/01/05 12:14:59;;;;;;;6.55;5.30;;;;;;;;;;4936352;29;20031;-91
2023/01/05 12:17:53;;;;;;;7.95;5.68;;;;;;;;;;4936113;29;20031;-90
2023/01/05 12:20:50;;;;;;;5.60;4.78;;;;;;;;;;4936346;29;20086;-90
2023/01/05 12:23:44;;;;;;;6.75;5.15;;;;;;;;;;4927244;29;20111;-90
2023/01/05 12:26:25;;;;;;;7.32;5.40;;;;;;;;;;4935986;29;20494;-92
2023/01/05 12:29:09;;;;;;;5.47;4.90;;;;;;;;;;4936021;29;20042;-93
2023/01/05 12:31:37;;;;;;;5.53;4.90;;;;;;;;;;4937373;29;20103;-92
2023/01/05 12:34:29;;;;;;;5.20;4.70;;;;;;;;;;4936168;29;20027;-90
2023/01/05 12:36:55;;;;;;;5.47;4.97;;;;;;;;;;4892000;29;20039;-91
2023/01/05 12:39:48;;;;;;;6.80;5.07;;;;;;;;;;4935884;29;20078;-89
2023/01/05 12:42:14;;;;;;;5.70;5.03;;;;;;;;;;4937210;29;20043;-94
2023/01/05 12:45:17;;;;;;;5.53;5.03;;;;;;;;;;4935819;29;20118;-89
2023/01/05 12:48:06;;;;;;;6.03;4.88;;;;;;;;;;4935514;29;20035;-90
2023/01/05 12:50:51;;;;;;;7.15;5.57;;;;;;;;;;4935741;29;20063;-91
2023/01/05 12:53:22;;;;;;;5.85;5.00;;;;;;;;;;4936854;29;20032;-89
2023/01/05 12:55:56;;;;;;;5.40;4.70;;;;;;;;;;4937068;29;20082;-89
2023/01/05 12:58:27;;;;;;;8.35;6.68;;;;;;;;;;4936956;29;20498;-93
2023/01/05 13:00:56;;;;;;;6.47;5.75;;;;;;;;;;4935811;29;20032;-90
2023/01/05 13:03:25;;;;;;;9.40;7.03;;;;;;;;;;4936883;29;20042;-89
2023/01/05 13:06:07;;;;;;;8.10;5.60;;;;;;;;;;4935742;29;20028;-90
2023/01/05 13:08:39;;;;;;;9.50;6.10;;;;;;;;;;4935691;29;20483;-92
2023/01/05 13:11:21;;;;;;;8.52;6.25;;;;;;;;;;4935746;29;20126;-94
2023/01/05 13:13:51;;;;;;;9.60;7.05;;;;;;;;;;4935546;29;20553;-90
2023/01/05 13:16:28;;;;;;;11.73;8.15;;;;;;;;;;4935731;29;20032;-90
2023/01/05 13:19:19;;;;;;;8.10;6.22;;;;;;;;;;4935558;29;20032;-93
2023/01/05 13:21:46;;;;;;;7.53;5.70;;;;;;;;;;4935296;29;20040;-90
2023/01/05 13:24:25;;;;;;;5.25;4.75;;;;;;;;;;4936908;29;20047;-93
2023/01/05 13:26:51;;;;;;;5.30;4.55;;;;;;;;;;4938097;29;20061;-92
2023/01/05 13:29:40;;;;;;;4.93;4.25;;;;;;;;;;4937954;29;20394;-90
2023/01/05 13:32:11;;;;;;;5.13;4.07;;;;;;;;;;4935575;29;20032;-90
2023/01/05 13:34:57;;;;;;;5.97;3.92;;;;;;;;;;4937315;29;20086;-92
2023/01/05 13:37:57;;;;;;;4.38;3.97;;;;;;;;;;4936713;29;20106;-90
2023/01/05 13:40:34;;;;;;;4.32;3.92;;;;;;;;;;4935899;29;20043;-93
2023/01/05 13:43:03;;;;;;;4.35;3.95;;;;;;;;;;4935919;29;20035;-94
2023/01/05 13:45:28;;;;;;;5.00;4.30;;;;;;;;;;4935481;29;20020;-94
2023/01/05 13:48:35;;;;;;;4.35;3.95;;;;;;;;;;4935096;29;20042;-93
2023/01/05 13:51:31;;;;;;;4.15;3.75;;;;;;;;;;4939454;29;20122;-91
2023/01/05 13:54:00;;;;;;;4.75;4.15;;;;;;;;;;4939974;29;20106;-92
2023/01/05 13:56:28;;;;;;;5.65;3.90;;;;;;;;;;4939924;29;20130;-91
2023/01/05 13:59:02;;;;;;;5.32;4.00;;;;;;;;;;4939083;29;20038;-94
2023/01/05 14:01:41;;;;;;;5.03;4.13;;;;;;;;;;4939972;29;20043;-93
2023/01/05 14:04:38;;;;;;;4.03;3.47;;;;;;;;;;4940522;29;20024;-91
2023/01/05 14:07:14;;;;;;;4.18;3.78;;;;;;;;;;4937768;29;20046;-95
2023/01/05 14:09:47;;;;;;;3.78;3.47;;;;;;;;;;4923037;29;20035;-93
2023/01/05 14:12:15;;;;;;;3.95;3.42;;;;;;;;;;4939671;29;20028;-93
2023/01/05 14:14:59;;;;;;;3.95;3.55;;;;;;;;;;4938548;29;20031;-93
2023/01/05 14:17:50;;;;;;;3.33;2.97;;;;;;;;;;4938653;29;20035;-90
2023/01/05 14:20:45;;;;;;;3.72;3.15;;;;;;;;;;4938391;29;20058;-89
2023/01/05 14:23:25;;;;;;;3.35;2.95;;;;;;;;;;4939513;29;20043;-90
2023/01/05 14:26:06;;;;;;;4.20;3.80;;;;;;;;;;4939274;29;20470;-92
2023/01/05 14:28:32;;;;;;;4.05;3.55;;;;;;;;;;4939391;29;20027;-89
2023/01/05 14:31:34;;;;;;;3.72;3.30;;;;;;;;;;4937950;29;20032;-90
2023/01/05 14:34:06;;;;;;;4.55;3.20;;;;;;;;;;4938270;29;20024;-89
2023/01/05 14:36:58;;;;;;;5.25;4.10;;;;;;;;;;4937693;29;20023;-89
2023/01/05 14:39:28;;;;;;;4.60;3.30;;;;;;;;;;4937814;29;20427;-90
2023/01/05 14:42:04;;;;;;;4.32;3.40;;;;;;;;;;4938934;29;20165;-91
2023/01/05 14:44:34;;;;;;;4.43;3.65;;;;;;;;;;4937959;29;20118;-93
2023/01/05 14:47:01;;;;;;;3.70;3.30;;;;;;;;;;4938974;29;20035;-89
2023/01/05 14:49:35;;;;;;;4.35;3.90;;;;;;;;;;4937957;29;20075;-90
2023/01/05 14:52:04;;;;;;;4.93;3.40;;;;;;;;;;4937989;29;20036;-90
2023/01/05 14:54:52;;;;;;;4.50;3.10;;;;;;;;;;4938889;29;20087;-90
2023/01/05 14:57:23;;;;;;;4.72;3.42;;;;;;;;;;4937082;29;20356;-91
2023/01/05 14:59:54;;;;;;;18.55;15.27;;;;;;;;;;4938425;29;20027;-89
2023/01/05 15:02:27;;;;;;;8.00;5.72;;;;;;;;;;4937670;29;20035;-94
2023/01/05 15:04:57;;;;;;;3.83;3.50;;;;;;;;;;4939564;29;20035;-90
2023/01/05 15:07:50;;;;;;;4.15;3.60;;;;;;;;;;4939210;29;20036;-93
2023/01/05 15:10:57;;;;;;;3.88;3.50;;;;;;;;;;4938561;29;20558;-90
2023/01/05 15:13:34;;;;;;;6.30;5.65;;;;;;;;;;4902846;29;20043;-93
2023/01/05 15:16:26;;;;;;;4.97;3.70;;;;;;;;;;4938542;29;20028;-92
2023/01/05 15:19:09;;;;;;;4.57;3.63;;;;;;;;;;4938345;29;20051;-89
2023/01/05 15:21:57;;;;;;;7.18;4.68;;;;;;;;;;4938450;29;20122;-90
2023/01/05 15:24:54;;;;;;;6.93;5.78;;;;;;;;;;4937487;29;20122;-89
2023/01/05 15:27:55;;;;;;;5.07;4.57;;;;;;;;;;4938535;29;20111;-89
2023/01/05 15:30:49;;;;;;;20.52;17.20;;;;;;;;;;4938496;29;20062;-89
2023/01/05 15:33:31;;;;;;;25.52;20.63;;;;;;;;;;4901092;29;20039;-89
2023/01/05 15:36:02;;;;;;;5.63;4.72;;;;;;;;;;4936817;29;20119;-94
2023/01/05 15:38:29;;;;;;;5.20;4.15;;;;;;;;;;4936883;29;20036;-93
2023/01/05 15:41:09;;;;;;;6.20;5.30;;;;;;;;;;4936957;29;20064;-89
2023/01/05 15:43:38;;;;;;;5.18;3.65;;;;;;;;;;4938242;29;20028;-90
2023/01/05 15:46:04;;;;;;;4.75;4.25;;;;;;;;;;4936534;29;20066;-92
2023/01/05 15:48:35;;;;;;;9.23;4.13;;;;;;;;;;4938375;29;20111;-87
2023/01/05 15:51:01;;;;;;;20.25;12.32;;;;;;;;;;4937963;29;20039;-94
2023/01/05 15:53:31;;;;;;;3.75;3.30;;;;;;;;;;4935929;29;20126;-88
2023/01/05 16:30:39;;;;;;;4.55;3.55;;;;;;;;;;5968589;23;20141;31
2023/01/05 16:33:10;;;;;;;4.57;3.70;;;;;;;;;;4886849;29;20057;-93
2023/01/05 16:36:03;;;;;;;7.13;4.80;;;;;;;;;;4896737;29;20048;-93
2023/01/05 16:38:29;;;;;;;5.68;4.50;;;;;;;;;;4862271;29;20025;-92
2023/01/05 16:41:19;;;;;;;6.03;5.03;;;;;;;;;;4877944;29;20037;-94
2023/01/05 16:43:48;;;;;;;8.88;8.07;;;;;;;;;;4868357;29;20029;-92
2023/01/05 16:46:16;;;;;;;4.85;4.07;;;;;;;;;;4879478;29;20037;-94
2023/01/05 16:48:56;;;;;;;8.15;5.65;;;;;;;;;;4887848;29;20032;-94
2023/01/05 16:51:38;;;;;;;7.30;6.45;;;;;;;;;;4879512;29;20092;-95
2023/01/05 16:54:12;;;;;;;5.15;4.30;;;;;;;;;;4880095;29;20065;-92
2023/01/05 16:56:55;;;;;;;17.30;13.38;;;;;;;;;;4886448;29;20507;-96
2023/01/05 16:59:47;;;;;;;14.32;11.25;;;;;;;;;;4879856;29;20037;-93
2023/01/05 17:02:47;;;;;;;14.80;9.10;;;;;;;;;;4879124;29;20025;-92
2023/01/05 17:05:17;;;;;;;8.35;5.40;;;;;;;;;;4879178;29;20085;-92
2023/01/05 17:07:45;;;;;;;12.20;8.43;;;;;;;;;;4878922;29;20080;-92
2023/01/05 17:10:28;;;;;;;13.43;9.10;;;;;;;;;;4879779;29;20041;-93
2023/01/05 17:13:02;;;;;;;6.47;4.85;;;;;;;;;;4876259;29;20085;-89
2023/01/05 17:15:32;;;;;;;12.07;9.15;;;;;;;;;;4876455;29;20033;-92
2023/01/05 17:17:58;;;;;;;11.02;7.72;;;;;;;;;;4872071;29;20044;-91
2023/01/05 17:20:28;;;;;;;11.23;7.47;;;;;;;;;;4878660;29;20036;-92
2023/01/05 17:22:54;;;;;;;11.15;7.65;;;;;;;;;;4866302;29;20106;-93
2023/01/05 17:25:20;;;;;;;9.20;6.38;;;;;;;;;;4872265;29;20483;-94
2023/01/05 17:27:46;;;;;;;9.75;6.28;;;;;;;;;;4864571;29;20041;-93
2023/01/05 17:30:20;;;;;;;8.13;6.20;;;;;;;;;;4864196;29;20069;-92
2023/01/05 17:32:45;;;;;;;6.55;5.55;;;;;;;;;;4864884;29;20037;-94
2023/01/05 17:35:12;;;;;;;8.52;6.78;;;;;;;;;;4864246;29;20032;-94
2023/01/05 17:37:37;;;;;;;23.00;17.30;;;;;;;;;;4864222;29;20497;-93
2023/01/05 17:40:04;;;;;;;18.00;13.18;;;;;;;;;;4872387;29;20034;-92
2023/01/05 17:42:41;;;;;;;15.07;12.20;;;;;;;;;;4898107;29;20032;-94
2023/01/05 17:45:22;;;;;;;14.23;10.77;;;;;;;;;;4882757;29;20072;-94
2023/01/05 17:47:49;;;;;;;13.80;9.90;;;;;;;;;;4883411;29;20513;-94
2023/01/05 17:50:18;;;;;;;11.25;8.02;;;;;;;;;;4883979;29;20104;-94
2023/01/05 17:52:43;;;;;;;8.35;6.90;;;;;;;;;;4882351;29;20033;-94
2023/01/05 17:55:09;;;;;;;6.85;5.07;;;;;;;;;;4883568;29;20032;-93
2023/01/05 17:57:35;;;;;;;5.35;4.40;;;;;;;;;;4879398;29;20036;-94
2023/01/05 18:00:02;;;;;;;5.25;4.30;;;;;;;;;;4891048;29;20029;-94
2023/01/05 18:02:33;;;;;;;7.72;6.25;;;;;;;;;;4882462;29;20058;-93
2023/01/05 18:04:59;;;;;;;6.65;5.60;;;;;;;;;;4880234;29;20033;-92
2023/01/05 18:07:30;;;;;;;7.20;5.95;;;;;;;;;;4871000;29;20115;-96
2023/01/05 18:09:57;;;;;;;9.63;5.90;;;;;;;;;;4882042;29;20036;-94
2023/01/05 18:12:24;;;;;;;5.13;4.25;;;;;;;;;;4882045;29;20021;-94
2023/01/05 18:14:50;;;;;;;6.30;4.80;;;;;;;;;;4884884;29;20032;-94
2023/01/05 18:17:18;;;;;;;10.15;7.72;;;;;;;;;;4900686;29;20025;-95
2023/01/05 18:19:44;;;;;;;17.20;13.07;;;;;;;;;;4882596;29;20036;-93
2023/01/05 18:22:10;;;;;;;10.13;7.28;;;;;;;;;;4878462;29;20029;-94
2023/01/05 18:24:38;;;;;;;13.25;9.23;;;;;;;;;;4872171;29;20033;-94
2023/01/05 18:27:05;;;;;;;11.65;8.23;;;;;;;;;;4883521;29;20033;-95
2023/01/05 18:29:38;;;;;;;6.88;6.18;;;;;;;;;;4884407;29;20032;-93
2023/01/05 18:32:07;;;;;;;6.07;5.43;;;;;;;;;;4884840;23;20053;-96
2023/01/05 18:34:33;;;;;;;5.40;4.43;;;;;;;;;;4934660;29;20040;-93
2023/01/05 18:36:58;;;;;;;7.20;4.65;;;;;;;;;;4938758;29;20039;-95
2023/01/05 18:39:24;;;;;;;7.07;5.43;;;;;;;;;;4933213;29;20083;-94
2023/01/05 18:41:50;;;;;;;6.85;6.03;;;;;;;;;;4936095;29;20032;-95
2023/01/05 18:44:15;;;;;;;7.85;6.05;;;;;;;;;;4938467;29;20043;-96
2023/01/05 18:46:45;;;;;;;18.23;11.68;;;;;;;;;;4939235;29;20028;-96
2023/01/05 18:49:11;;;;;;;16.05;11.35;;;;;;;;;;4935476;29;20035;-96
2023/01/05 18:51:37;;;;;;;7.18;5.97;;;;;;;;;;4947975;28;20036;-94
2023/01/05 18:54:03;;;;;;;5.97;3.92;;;;;;;;;;4941994;28;20082;-96
2023/01/05 18:56:29;;;;;;;7.30;4.68;;;;;;;;;;4938570;29;20482;-95
2023/01/05 18:58:54;;;;;;;5.40;4.60;;;;;;;;;;4929433;29;20089;-94
2023/01/05 19:01:21;;;;;;;5.97;5.25;;;;;;;;;;4934193;29;20024;-95
2023/01/05 19:03:49;;;;;;;6.22;5.22;;;;;;;;;;4935919;29;20027;-96
2023/01/05 19:06:16;;;;;;;6.68;4.75;;;;;;;;;;4924472;29;20074;-96
2023/01/05 19:08:43;;;;;;;8.00;6.18;;;;;;;;;;4942476;29;20099;-96
2023/01/05 19:11:26;;;;;;;6.85;5.68;;;;;;;;;;4941890;29;20036;-94
2023/01/05 19:14:22;;;;;;;103.80;52.72;;;;;;;;;;4943459;29;20039;-96
2023/01/05 19:17:00;;;;;;;61.97;33.78;;;;;;;;;;4933781;29;20096;-96
2023/01/05 19:19:31;;;;;;;20.98;12.57;;;;;;;;;;4933955;29;20028;-95
2023/01/05 19:24:35;;;;;;;17.52;10.50;;;;;;;;;;5449898;23;20056;-95
2023/01/05 19:27:00;;;;;;;20.98;12.75;;;;;;;;;;4940456;29;20038;-96
2023/01/05 19:29:26;;;;;;;37.22;25.30;;;;;;;;;;4940448;29;20034;-94
2023/01/05 19:31:51;;;;;;;31.30;21.45;;;;;;;;;;4937635;29;20518;-93
2023/01/05 19:34:18;;;;;;;31.88;19.05;;;;;;;;;;4937341;29;20114;-93
2023/01/05 19:36:45;;;;;;;23.40;15.30;;;;;;;;;;4938385;29;20024;-95
2023/01/05 19:39:13;;;;;;;18.88;12.50;;;;;;;;;;4940942;29;20034;-95
2023/01/05 19:41:41;;;;;;;17.08;12.02;;;;;;;;;;4937649;29;20028;-94
2023/01/05 19:44:14;;;;;;;14.15;10.25;;;;;;;;;;4936757;29;20039;-92
2023/01/05 19:46:39;;;;;;;10.43;8.40;;;;;;;;;;4936993;29;20213;-92
2023/01/05 19:49:05;;;;;;;11.88;7.60;;;;;;;;;;4937264;29;20059;-91
2023/01/05 19:51:58;;;;;;;10.77;7.28;;;;;;;;;;4938225;29;20070;-96
2023/01/05 19:54:27;;;;;;;11.88;8.95;;;;;;;;;;4956616;29;20032;-95
2023/01/05 19:56:53;;;;;;;12.32;8.60;;;;;;;;;;4943514;29;20038;-95
2023/01/05 19:59:31;;;;;;;7.32;5.75;;;;;;;;;;4944310;29;20043;-96
2023/01/05 20:01:57;;;;;;;9.65;7.80;;;;;;;;;;4938759;29;20020;-90
2023/01/05 20:04:22;;;;;;;8.98;7.88;;;;;;;;;;4938118;29;20032;-93
2023/01/05 20:06:48;;;;;;;8.43;6.47;;;;;;;;;;4934673;29;20024;-92
2023/01/05 20:09:16;;;;;;;7.53;5.47;;;;;;;;;;4933878;29;20530;-96
2023/01/05 20:11:44;;;;;;;6.75;5.50;;;;;;;;;;4943902;29;20372;-95
2023/01/05 20:14:18;;;;;;;6.05;5.30;;;;;;;;;;4940194;29;20122;-92
2023/01/05 20:16:53;;;;;;;7.97;6.78;;;;;;;;;;4939731;29;20054;-92
2023/01/05 20:19:24;;;;;;;7.40;6.10;;;;;;;;;;4943254;29;20055;-96
2023/01/05 20:21:50;;;;;;;8.43;5.90;;;;;;;;;;4944585;29;20042;-96
2023/01/05 20:24:36;;;;;;;10.77;6.35;;;;;;;;;;4944655;29;20047;-90
2023/01/05 20:27:07;;;;;;;8.75;6.85;;;;;;;;;;4957876;23;20055;-96
2023/01/05 20:29:36;;;;;;;8.90;7.30;;;;;;;;;;4931730;29;20105;-93
2023/01/05 20:32:24;;;;;;;11.98;8.18;;;;;;;;;;4942977;23;20044;-91
2023/01/05 20:35:04;;;;;;;10.70;7.60;;;;;;;;;;5050388;23;20027;-92
2023/01/05 20:37:39;;;;;;;11.00;7.22;;;;;;;;;;4950013;29;20020;-90
2023/01/05 20:40:34;;;;;;;11.45;7.40;;;;;;;;;;4948142;29;20463;-91
2023/01/05 20:43:00;;;;;;;11.07;8.07;;;;;;;;;;4944827;29;20031;-95
2023/01/05 20:45:25;;;;;;;9.55;6.85;;;;;;;;;;4941429;29;20526;-96
2023/01/05 20:47:51;;;;;;;8.80;6.78;;;;;;;;;;4949231;29;20058;-95
2023/01/05 20:50:16;;;;;;;7.80;6.00;;;;;;;;;;4938383;29;20110;-88
2023/01/05 20:52:42;;;;;;;14.93;10.82;;;;;;;;;;4938256;29;20032;-89
2023/01/05 20:55:07;;;;;;;66.80;38.50;;;;;;;;;;4941545;29;20107;-87
2023/01/05 20:57:34;;;;;;;21.45;14.07;;;;;;;;;;4951499;29;20055;-93
2023/01/05 21:00:03;;;;;;;16.98;11.45;;;;;;;;;;4951532;29;20039;-87
2023/01/05 21:11:49;;;;;;;11.25;7.68;;;;;;;;;;4941993;29;20031;-89
2023/01/05 21:14:16;;;;;;;13.82;9.02;;;;;;;;;;4936904;29;20043;-96
2023/01/05 21:16:53;;;;;;;11.32;7.93;;;;;;;;;;4920156;29;20487;-88
2023/01/05 21:19:22;;;;;;;53.90;28.50;;;;;;;;;;4935433;29;20101;-94
2023/01/05 21:21:50;;;;;;;25.90;14.50;;;;;;;;;;4918838;29;20033;-89
2023/01/05 21:24:16;;;;;;;16.75;10.15;;;;;;;;;;4938123;29;20051;-89
2023/01/05 21:26:52;;;;;;;14.68;9.55;;;;;;;;;;4937436;29;20025;-89
2023/01/05 21:29:21;;;;;;;12.82;9.15;;;;;;;;;;4936201;29;20024;-88
2023/01/05 21:31:47;;;;;;;13.50;11.00;;;;;;;;;;5113312;23;20130;-88
2023/01/05 21:34:13;;;;;;;31.77;19.95;;;;;;;;;;4953645;28;20051;-93
2023/01/05 21:36:43;;;;;;;19.60;13.40;;;;;;;;;;4939130;29;20059;-94
2023/01/05 21:39:16;;;;;;;71.60;52.35;;;;;;;;;;4955712;28;20030;-89
2023/01/05 21:44:25;;;;;;;167.30;70.88;;;;;;;;;;4975252;28;20504;-96
2023/01/05 21:46:51;;;;;;;141.68;59.72;;;;;;;;;;4973947;28;20058;-95
2023/01/05 21:49:18;;;;;;;46.65;24.27;;;;;;;;;;4973607;28;20030;-90
2023/01/05 21:57:14;;;;;;;314.10;138.20;;;;;;;;;;4960975;28;20042;-95
2023/01/05 21:59:42;;;;;;;169.05;78.30;;;;;;;;;;4953485;29;20044;-94
2023/01/05 22:02:08;;;;;;;29.38;17.70;;;;;;;;;;4954314;29;20028;-95
2023/01/05 22:04:34;;;;;;;28.58;17.77;;;;;;;;;;4953908;29;20019;-95
2023/01/05 22:07:00;;;;;;;18.98;14.05;;;;;;;;;;4950898;28;20023;-95
2023/01/05 22:09:25;;;;;;;16.40;12.23;;;;;;;;;;4954692;28;20024;-96
2023/01/05 22:11:51;;;;;;;16.42;13.38;;;;;;;;;;4957494;29;20046;-95
2023/01/05 22:14:17;;;;;;;18.48;14.02;;;;;;;;;;4958678;29;20027;-91
